sensor_id;sensor_type;location;lat;lon;timestamp;pressure;altitude;pressure_sealevel;temperature;humidity
54503;BME280;40411;50.090;21.954;2022-12-07T00:00:54;149713.13;;;2.58;100.00
54503;BME280;40411;50.090;21.954;2022-12-07T00:03:20;149728.38;;;2.64;100.00
54503;BME280;40411;50.090;21.954;2022-12-07T00:05:46;149725.88;;;2.63;100.00
54503;BME280;40411;50.090;21.954;2022-12-07T00:08:12;149710.59;;;2.57;100.00
54503;BME280;40411;50.090;21.954;2022-12-07T00:10:38;149713.13;;;2.58;100.00
54503;BME280;40411;50.090;21.954;2022-12-07T00:13:03;149718.22;;;2.60;100.00
54503;BME280;40411;50.090;21.954;2022-12-07T00:15:29;149734.75;;;2.67;100.00
54503;BME280;40411;50.090;21.954;2022-12-07T00:17:55;149713.13;;;2.58;100.00
54503;BME280;40411;50.090;21.954;2022-12-07T00:20:21;149728.38;;;2.64;100.00
54503;BME280;40411;50.090;21.954;2022-12-07T00:22:47;149746.22;;;2.72;100.00
54503;BME280;40411;50.090;21.954;2022-12-07T00:25:13;149725.88;;;2.63;100.00
54503;BME280;40411;50.090;21.954;2022-12-07T00:27:38;149739.84;;;2.69;100.00
54503;BME280;40411;50.090;21.954;2022-12-07T00:30:05;149705.50;;;2.55;100.00
54503;BME280;40411;50.090;21.954;2022-12-07T00:32:31;149662.25;;;2.38;100.00
54503;BME280;40411;50.090;21.954;2022-12-07T00:34:56;149687.72;;;2.48;100.00
54503;BME280;40411;50.090;21.954;2022-12-07T00:37:22;149694.03;;;2.51;100.00
54503;BME280;40411;50.090;21.954;2022-12-07T00:39:48;149664.78;;;2.39;100.00
54503;BME280;40411;50.090;21.954;2022-12-07T00:42:14;149671.16;;;2.41;100.00
54503;BME280;40411;50.090;21.954;2022-12-07T00:44:40;149690.25;;;2.49;100.00
54503;BME280;40411;50.090;21.954;2022-12-07T00:47:06;149692.78;;;2.50;100.00
54503;BME280;40411;50.090;21.954;2022-12-07T00:49:31;149700.41;;;2.53;100.00
54503;BME280;40411;50.090;21.954;2022-12-07T00:51:57;149705.50;;;2.55;100.00
54503;BME280;40411;50.090;21.954;2022-12-07T00:54:23;149694.03;;;2.51;100.00
54503;BME280;40411;50.090;21.954;2022-12-07T00:56:49;149657.16;;;2.36;100.00
54503;BME280;40411;50.090;21.954;2022-12-07T00:59:15;149652.06;;;2.34;100.00
54503;BME280;40411;50.090;21.954;2022-12-07T01:01:41;149702.97;;;2.54;100.00
54503;BME280;40411;50.090;21.954;2022-12-07T01:04:07;149730.97;;;2.65;100.00
54503;BME280;40411;50.090;21.954;2022-12-07T01:06:33;149677.50;;;2.44;100.00
54503;BME280;40411;50.090;21.954;2022-12-07T01:08:59;149697.88;;;2.52;100.00
54503;BME280;40411;50.090;21.954;2022-12-07T01:11:28;149722.06;;;2.62;100.00
54503;BME280;40411;50.090;21.954;2022-12-07T01:13:56;149716.97;;;2.60;100.00
54503;BME280;40411;50.090;21.954;2022-12-07T01:16:24;149756.38;;;2.76;100.00
54503;BME280;40411;50.090;21.954;2022-12-07T01:18:53;149730.97;;;2.65;100.00
54503;BME280;40411;50.090;21.954;2022-12-07T01:21:21;149699.13;;;2.53;100.00
54503;BME280;40411;50.090;21.954;2022-12-07T01:23:48;149750.06;;;2.73;100.00
54503;BME280;40411;50.090;21.954;2022-12-07T01:26:17;149747.50;;;2.72;100.00
54503;BME280;40411;50.090;21.954;2022-12-07T01:28:44;149762.75;;;2.78;100.00
54503;BME280;40411;50.090;21.954;2022-12-07T01:31:12;149761.47;;;2.78;100.00
54503;BME280;40411;50.090;21.954;2022-12-07T01:33:41;149756.38;;;2.76;100.00
54503;BME280;40411;50.090;21.954;2022-12-07T01:36:13;149741.13;;;2.69;100.00
54503;BME280;40411;50.090;21.954;2022-12-07T01:38:40;149743.69;;;2.71;100.00
54503;BME280;40411;50.090;21.954;2022-12-07T01:41:07;149741.13;;;2.69;100.00
54503;BME280;40411;50.090;21.954;2022-12-07T01:43:34;149732.22;;;2.66;100.00
54503;BME280;40411;50.090;21.954;2022-12-07T01:46:00;149752.59;;;2.74;100.00
54503;BME280;40411;50.090;21.954;2022-12-07T01:48:39;149728.38;;;2.64;100.00
54503;BME280;40411;50.090;21.954;2022-12-07T01:51:09;149736.06;;;2.67;100.00
54503;BME280;40411;50.090;21.954;2022-12-07T01:53:40;149701.72;;;2.54;100.00
54503;BME280;40411;50.090;21.954;2022-12-07T01:56:08;149715.72;;;2.59;100.00
54503;BME280;40411;50.090;21.954;2022-12-07T01:58:35;149677.50;;;2.44;100.00
54503;BME280;40411;50.090;21.954;2022-12-07T02:01:03;149680.03;;;2.45;100.00
54503;BME280;40411;50.090;21.954;2022-12-07T02:03:33;149708.03;;;2.56;100.00
54503;BME280;40411;50.090;21.954;2022-12-07T02:06:00;149689.00;;;2.49;100.00
54503;BME280;40411;50.090;21.954;2022-12-07T02:08:26;149673.72;;;2.42;100.00
54503;BME280;40411;50.090;21.954;2022-12-07T02:10:52;149654.63;;;2.35;100.00
54503;BME280;40411;50.090;21.954;2022-12-07T02:13:19;149669.88;;;2.41;100.00
54503;BME280;40411;50.090;21.954;2022-12-07T02:18:20;149655.91;;;2.35;100.00
54503;BME280;40411;50.090;21.954;2022-12-07T02:20:56;149696.63;;;2.52;100.00
54503;BME280;40411;50.090;21.954;2022-12-07T02:29:23;149687.72;;;2.48;100.00
54503;BME280;40411;50.090;21.954;2022-12-07T02:32:14;149667.38;;;2.40;100.00
54503;BME280;40411;50.090;21.954;2022-12-07T02:37:58;149662.25;;;2.38;100.00
54503;BME280;40411;50.090;21.954;2022-12-07T02:43:12;149630.44;;;2.25;100.00
54503;BME280;40411;50.090;21.954;2022-12-07T02:45:41;149654.63;;;2.35;100.00
54503;BME280;40411;50.090;21.954;2022-12-07T02:48:08;149560.50;;;1.97;100.00
54503;BME280;40411;50.090;21.954;2022-12-07T02:50:36;149578.31;;;2.04;100.00
54503;BME280;40411;50.090;21.954;2022-12-07T02:53:01;149565.59;;;1.99;100.00
54503;BME280;40411;50.090;21.954;2022-12-07T02:55:30;149549.09;;;1.92;100.00
54503;BME280;40411;50.090;21.954;2022-12-07T03:01:05;149596.09;;;2.11;100.00
54503;BME280;40411;50.090;21.954;2022-12-07T03:03:32;149557.97;;;1.96;100.00
54503;BME280;40411;50.090;21.954;2022-12-07T03:06:12;149565.59;;;1.99;100.00
54503;BME280;40411;50.090;21.954;2022-12-07T03:08:56;149566.84;;;1.99;100.00
54503;BME280;40411;50.090;21.954;2022-12-07T03:11:55;149547.75;;;1.92;100.00
54503;BME280;40411;50.090;21.954;2022-12-07T03:14:30;149564.34;;;1.98;100.00
54503;BME280;40411;50.090;21.954;2022-12-07T03:17:05;149578.31;;;2.04;100.00
54503;BME280;40411;50.090;21.954;2022-12-07T03:19:33;149598.66;;;2.12;100.00
54503;BME280;40411;50.090;21.954;2022-12-07T03:22:04;149588.47;;;2.08;100.00
54503;BME280;40411;50.090;21.954;2022-12-07T03:24:35;149620.28;;;2.21;100.00
54503;BME280;40411;50.090;21.954;2022-12-07T03:27:06;149650.78;;;2.33;100.00
54503;BME280;40411;50.090;21.954;2022-12-07T03:29:40;149644.44;;;2.31;100.00
54503;BME280;40411;50.090;21.954;2022-12-07T03:32:21;149606.31;;;2.15;100.00
54503;BME280;40411;50.090;21.954;2022-12-07T03:34:53;149625.38;;;2.23;100.00
54503;BME280;40411;50.090;21.954;2022-12-07T03:37:23;149612.66;;;2.18;100.00
54503;BME280;40411;50.090;21.954;2022-12-07T03:40:10;149644.44;;;2.31;100.00
54503;BME280;40411;50.090;21.954;2022-12-07T03:42:38;149678.78;;;2.44;100.00
54503;BME280;40411;50.090;21.954;2022-12-07T03:45:05;149702.97;;;2.54;100.00
54503;BME280;40411;50.090;21.954;2022-12-07T03:47:56;149725.88;;;2.63;100.00
54503;BME280;40411;50.090;21.954;2022-12-07T03:50:44;149695.34;;;2.51;100.00
54503;BME280;40411;50.090;21.954;2022-12-07T03:53:19;149718.22;;;2.60;100.00
54503;BME280;40411;50.090;21.954;2022-12-07T03:55:48;149739.84;;;2.69;100.00
54503;BME280;40411;50.090;21.954;2022-12-07T03:58:20;149751.34;;;2.74;100.00
54503;BME280;40411;50.090;21.954;2022-12-07T04:00:48;149746.22;;;2.72;100.00
54503;BME280;40411;50.090;21.954;2022-12-07T04:03:15;149766.59;;;2.80;100.00
54503;BME280;40411;50.090;21.954;2022-12-07T04:05:42;149741.13;;;2.69;100.00
54503;BME280;40411;50.090;21.954;2022-12-07T04:08:08;149713.13;;;2.58;100.00
54503;BME280;40411;50.090;21.954;2022-12-07T04:10:34;149727.13;;;2.64;100.00
54503;BME280;40411;50.090;21.954;2022-12-07T04:12:59;149734.75;;;2.67;100.00
54503;BME280;40411;50.090;21.954;2022-12-07T04:15:25;149751.34;;;2.74;100.00
54503;BME280;40411;50.090;21.954;2022-12-07T04:17:52;149750.06;;;2.73;100.00
54503;BME280;40411;50.090;21.954;2022-12-07T04:20:18;149733.50;;;2.66;100.00
54503;BME280;40411;50.090;21.954;2022-12-07T04:22:44;149733.50;;;2.66;100.00
54503;BME280;40411;50.090;21.954;2022-12-07T04:25:09;149741.13;;;2.69;100.00
54503;BME280;40411;50.090;21.954;2022-12-07T04:27:35;149737.34;;;2.68;100.00
54503;BME280;40411;50.090;21.954;2022-12-07T04:30:01;149714.41;;;2.59;100.00
54503;BME280;40411;50.090;21.954;2022-12-07T04:32:27;149714.41;;;2.59;100.00
54503;BME280;40411;50.090;21.954;2022-12-07T04:34:53;149720.75;;;2.61;100.00
54503;BME280;40411;50.090;21.954;2022-12-07T04:37:19;149716.97;;;2.60;100.00
54503;BME280;40411;50.090;21.954;2022-12-07T04:39:45;149704.25;;;2.55;100.00
54503;BME280;40411;50.090;21.954;2022-12-07T04:42:11;149690.25;;;2.49;100.00
54503;BME280;40411;50.090;21.954;2022-12-07T04:44:38;149710.59;;;2.57;100.00
54503;BME280;40411;50.090;21.954;2022-12-07T04:47:04;149685.16;;;2.47;100.00
54503;BME280;40411;50.090;21.954;2022-12-07T04:49:30;149672.41;;;2.42;100.00
54503;BME280;40411;50.090;21.954;2022-12-07T04:51:56;149694.03;;;2.51;100.00
54503;BME280;40411;50.090;21.954;2022-12-07T04:54:22;149681.34;;;2.45;100.00
54503;BME280;40411;50.090;21.954;2022-12-07T04:56:48;149715.72;;;2.59;100.00
54503;BME280;40411;50.090;21.954;2022-12-07T04:59:15;149736.06;;;2.67;100.00
54503;BME280;40411;50.090;21.954;2022-12-07T05:01:41;149741.13;;;2.69;100.00
54503;BME280;40411;50.090;21.954;2022-12-07T05:04:07;149728.38;;;2.64;100.00
54503;BME280;40411;50.090;21.954;2022-12-07T05:06:34;149751.34;;;2.74;100.00
54503;BME280;40411;50.090;21.954;2022-12-07T05:09:00;149756.38;;;2.76;100.00
54503;BME280;40411;50.090;21.954;2022-12-07T05:11:26;149743.69;;;2.71;100.00
54503;BME280;40411;50.090;21.954;2022-12-07T05:14:07;149738.59;;;2.68;100.00
54503;BME280;40411;50.090;21.954;2022-12-07T05:16:33;149760.22;;;2.77;100.00
54503;BME280;40411;50.090;21.954;2022-12-07T05:18:59;149758.97;;;2.77;100.00
54503;BME280;40411;50.090;21.954;2022-12-07T05:21:25;149752.59;;;2.74;100.00
54503;BME280;40411;50.090;21.954;2022-12-07T05:23:50;149766.59;;;2.80;100.00
54503;BME280;40411;50.090;21.954;2022-12-07T05:26:18;149739.84;;;2.69;100.00
54503;BME280;40411;50.090;21.954;2022-12-07T05:28:44;149730.97;;;2.65;100.00
54503;BME280;40411;50.090;21.954;2022-12-07T05:31:10;149738.59;;;2.68;100.00
54503;BME280;40411;50.090;21.954;2022-12-07T05:33:35;149727.13;;;2.64;100.00
54503;BME280;40411;50.090;21.954;2022-12-07T05:36:02;149744.97;;;2.71;100.00
54503;BME280;40411;50.090;21.954;2022-12-07T05:38:31;149741.13;;;2.69;100.00
54503;BME280;40411;50.090;21.954;2022-12-07T05:41:05;149737.34;;;2.68;100.00
54503;BME280;40411;50.090;21.954;2022-12-07T05:43:32;149704.25;;;2.55;100.00
54503;BME280;40411;50.090;21.954;2022-12-07T05:45:58;149741.13;;;2.69;100.00
54503;BME280;40411;50.090;21.954;2022-12-07T05:48:25;149762.75;;;2.78;100.00
54503;BME280;40411;50.090;21.954;2022-12-07T05:50:52;149736.06;;;2.67;100.00
54503;BME280;40411;50.090;21.954;2022-12-07T05:53:18;149771.69;;;2.82;100.00
54503;BME280;40411;50.090;21.954;2022-12-07T05:55:44;149798.44;;;2.93;100.00
54503;BME280;40411;50.090;21.954;2022-12-07T05:58:10;149778.06;;;2.84;100.00
54503;BME280;40411;50.090;21.954;2022-12-07T06:00:55;149790.75;;;2.89;100.00
54503;BME280;40411;50.090;21.954;2022-12-07T06:03:21;149771.69;;;2.82;100.00
54503;BME280;40411;50.090;21.954;2022-12-07T06:05:47;149722.06;;;2.62;100.00
54503;BME280;40411;50.090;21.954;2022-12-07T06:08:13;149700.41;;;2.53;100.00
54503;BME280;40411;50.090;21.954;2022-12-07T06:10:41;149711.88;;;2.58;100.00
54503;BME280;40411;50.090;21.954;2022-12-07T06:13:08;149718.22;;;2.60;100.00
54503;BME280;40411;50.090;21.954;2022-12-07T06:15:37;149733.50;;;2.66;100.00
54503;BME280;40411;50.090;21.954;2022-12-07T06:18:03;149733.50;;;2.66;100.00
54503;BME280;40411;50.090;21.954;2022-12-07T06:20:29;149738.59;;;2.68;100.00
54503;BME280;40411;50.090;21.954;2022-12-07T06:22:55;149696.63;;;2.52;100.00
54503;BME280;40411;50.090;21.954;2022-12-07T06:25:21;149711.88;;;2.58;100.00
54503;BME280;40411;50.090;21.954;2022-12-07T06:27:46;149714.41;;;2.59;100.00
54503;BME280;40411;50.090;21.954;2022-12-07T06:30:12;149737.34;;;2.68;100.00
54503;BME280;40411;50.090;21.954;2022-12-07T06:32:38;149685.16;;;2.47;100.00
54503;BME280;40411;50.090;21.954;2022-12-07T06:35:04;149715.72;;;2.59;100.00
54503;BME280;40411;50.090;21.954;2022-12-07T06:37:30;149696.63;;;2.52;100.00
54503;BME280;40411;50.090;21.954;2022-12-07T06:39:56;149722.06;;;2.62;100.00
54503;BME280;40411;50.090;21.954;2022-12-07T06:42:22;149743.69;;;2.71;100.00
54503;BME280;40411;50.090;21.954;2022-12-07T06:44:48;149736.06;;;2.67;100.00
54503;BME280;40411;50.090;21.954;2022-12-07T06:47:14;149744.97;;;2.71;100.00
54503;BME280;40411;50.090;21.954;2022-12-07T06:49:40;149746.22;;;2.72;100.00
54503;BME280;40411;50.090;21.954;2022-12-07T06:52:06;149711.88;;;2.58;100.00
54503;BME280;40411;50.090;21.954;2022-12-07T06:54:31;149714.41;;;2.59;100.00
54503;BME280;40411;50.090;21.954;2022-12-07T06:56:57;149654.63;;;2.35;100.00
54503;BME280;40411;50.090;21.954;2022-12-07T06:59:23;149713.13;;;2.58;100.00
54503;BME280;40411;50.090;21.954;2022-12-07T07:01:49;149736.06;;;2.67;100.00
54503;BME280;40411;50.090;21.954;2022-12-07T07:04:16;149720.75;;;2.61;100.00
54503;BME280;40411;50.090;21.954;2022-12-07T07:06:41;149718.22;;;2.60;100.00
54503;BME280;40411;50.090;21.954;2022-12-07T07:09:07;149732.22;;;2.66;100.00
54503;BME280;40411;50.090;21.954;2022-12-07T07:11:34;149747.50;;;2.72;100.00
54503;BME280;40411;50.090;21.954;2022-12-07T07:14:00;149720.75;;;2.61;100.00
54503;BME280;40411;50.090;21.954;2022-12-07T07:16:29;149748.75;;;2.73;100.00
54503;BME280;40411;50.090;21.954;2022-12-07T07:18:56;149709.34;;;2.57;100.00
54503;BME280;40411;50.090;21.954;2022-12-07T07:21:22;149692.78;;;2.50;100.00
54503;BME280;40411;50.090;21.954;2022-12-07T07:23:49;149700.41;;;2.53;100.00
54503;BME280;40411;50.090;21.954;2022-12-07T07:26:14;149714.41;;;2.59;100.00
54503;BME280;40411;50.090;21.954;2022-12-07T07:28:40;149690.25;;;2.49;100.00
54503;BME280;40411;50.090;21.954;2022-12-07T07:31:06;149711.88;;;2.58;100.00
54503;BME280;40411;50.090;21.954;2022-12-07T07:33:32;149714.41;;;2.59;100.00
54503;BME280;40411;50.090;21.954;2022-12-07T07:35:58;149689.00;;;2.49;100.00
54503;BME280;40411;50.090;21.954;2022-12-07T07:38:24;149696.63;;;2.52;100.00
54503;BME280;40411;50.090;21.954;2022-12-07T07:40:49;149689.00;;;2.49;100.00
54503;BME280;40411;50.090;21.954;2022-12-07T07:43:15;149736.06;;;2.67;100.00
54503;BME280;40411;50.090;21.954;2022-12-07T07:45:41;149723.34;;;2.62;100.00
54503;BME280;40411;50.090;21.954;2022-12-07T07:48:07;149705.50;;;2.55;100.00
54503;BME280;40411;50.090;21.954;2022-12-07T07:50:33;149673.72;;;2.42;100.00
54503;BME280;40411;50.090;21.954;2022-12-07T07:52:59;149685.16;;;2.47;100.00
54503;BME280;40411;50.090;21.954;2022-12-07T07:55:24;149696.63;;;2.52;100.00
54503;BME280;40411;50.090;21.954;2022-12-07T07:57:50;149678.78;;;2.44;100.00
54503;BME280;40411;50.090;21.954;2022-12-07T08:00:17;149677.50;;;2.44;100.00
54503;BME280;40411;50.090;21.954;2022-12-07T08:02:43;149677.50;;;2.44;100.00
54503;BME280;40411;50.090;21.954;2022-12-07T08:05:13;149664.78;;;2.39;100.00
54503;BME280;40411;50.090;21.954;2022-12-07T08:07:40;149673.72;;;2.42;100.00
54503;BME280;40411;50.090;21.954;2022-12-07T08:10:10;149669.88;;;2.41;100.00
54503;BME280;40411;50.090;21.954;2022-12-07T08:12:39;149672.41;;;2.42;100.00
54503;BME280;40411;50.090;21.954;2022-12-07T08:15:26;149733.50;;;2.66;100.00
54503;BME280;40411;50.090;21.954;2022-12-07T08:17:53;149700.41;;;2.53;100.00
54503;BME280;40411;50.090;21.954;2022-12-07T08:20:19;149766.59;;;2.80;100.00
54503;BME280;40411;50.090;21.954;2022-12-07T08:22:45;149778.06;;;2.84;100.00
54503;BME280;40411;50.090;21.954;2022-12-07T08:25:11;149741.13;;;2.69;100.00
54503;BME280;40411;50.090;21.954;2022-12-07T08:27:37;149776.75;;;2.84;100.00
54503;BME280;40411;50.090;21.954;2022-12-07T08:30:03;149771.69;;;2.82;100.00
54503;BME280;40411;50.090;21.954;2022-12-07T08:32:29;149827.69;;;3.04;100.00
54503;BME280;40411;50.090;21.954;2022-12-07T08:34:55;149794.59;;;2.91;100.00
54503;BME280;40411;50.090;21.954;2022-12-07T08:37:21;149856.94;;;3.16;100.00
54503;BME280;40411;50.090;21.954;2022-12-07T08:39:47;149868.44;;;3.21;100.00
54503;BME280;40411;50.090;21.954;2022-12-07T08:42:13;149845.47;;;3.11;100.00
54503;BME280;40411;50.090;21.954;2022-12-07T08:44:39;149862.06;;;3.18;100.00
54503;BME280;40411;50.090;21.954;2022-12-07T08:47:08;149858.22;;;3.17;100.00
54503;BME280;40411;50.090;21.954;2022-12-07T08:49:43;149888.78;;;3.29;100.00
54503;BME280;40411;50.090;21.954;2022-12-07T08:52:11;149865.84;;;3.20;100.00
54503;BME280;40411;50.090;21.954;2022-12-07T08:54:38;149854.44;;;3.15;100.00
54503;BME280;40411;50.090;21.954;2022-12-07T08:57:06;149853.13;;;3.14;100.00
54503;BME280;40411;50.090;21.954;2022-12-07T08:59:35;149853.13;;;3.14;100.00
54503;BME280;40411;50.090;21.954;2022-12-07T09:02:03;149934.59;;;3.47;100.00
54503;BME280;40411;50.090;21.954;2022-12-07T09:04:29;149939.69;;;3.49;100.00
54503;BME280;40411;50.090;21.954;2022-12-07T09:06:56;149891.31;;;3.30;100.00
54503;BME280;40411;50.090;21.954;2022-12-07T09:09:22;149858.22;;;3.17;100.00
54503;BME280;40411;50.090;21.954;2022-12-07T09:11:48;149858.22;;;3.17;100.00
54503;BME280;40411;50.090;21.954;2022-12-07T09:14:14;149842.94;;;3.10;100.00
54503;BME280;40411;50.090;21.954;2022-12-07T09:16:40;149846.75;;;3.12;100.00
54503;BME280;40411;50.090;21.954;2022-12-07T09:19:08;149891.31;;;3.30;100.00
54503;BME280;40411;50.090;21.954;2022-12-07T09:21:34;149887.47;;;3.28;100.00
54503;BME280;40411;50.090;21.954;2022-12-07T09:24:00;149860.78;;;3.18;100.00
54503;BME280;40411;50.090;21.954;2022-12-07T09:26:26;149924.44;;;3.43;100.00
54503;BME280;40411;50.090;21.954;2022-12-07T09:28:52;149882.44;;;3.26;100.00
54503;BME280;40411;50.090;21.954;2022-12-07T09:31:18;149893.84;;;3.31;100.00
54503;BME280;40411;50.090;21.954;2022-12-07T09:33:53;149920.59;;;3.42;100.00
54503;BME280;40411;50.090;21.954;2022-12-07T09:36:19;149957.50;;;3.56;100.00
54503;BME280;40411;50.090;21.954;2022-12-07T09:38:45;149934.59;;;3.47;100.00
54503;BME280;40411;50.090;21.954;2022-12-07T09:41:11;149963.88;;;3.59;100.00
54503;BME280;40411;50.090;21.954;2022-12-07T09:43:38;149942.22;;;3.50;100.00
54503;BME280;40411;50.090;21.954;2022-12-07T09:46:05;149896.44;;;3.32;100.00
54503;BME280;40411;50.090;21.954;2022-12-07T09:48:36;149886.22;;;3.28;100.00
54503;BME280;40411;50.090;21.954;2022-12-07T09:51:22;149912.97;;;3.39;100.00
54503;BME280;40411;50.090;21.954;2022-12-07T09:53:49;149856.94;;;3.16;100.00
54503;BME280;40411;50.090;21.954;2022-12-07T09:56:18;149906.59;;;3.36;100.00
54503;BME280;40411;50.090;21.954;2022-12-07T09:58:45;149893.84;;;3.31;100.00
54503;BME280;40411;50.090;21.954;2022-12-07T10:01:16;149902.78;;;3.34;100.00
54503;BME280;40411;50.090;21.954;2022-12-07T10:03:49;149906.59;;;3.36;100.00
54503;BME280;40411;50.090;21.954;2022-12-07T10:06:16;149897.69;;;3.32;100.00
54503;BME280;40411;50.090;21.954;2022-12-07T10:08:42;149879.84;;;3.25;100.00
54503;BME280;40411;50.090;21.954;2022-12-07T10:11:09;149870.94;;;3.22;100.00
54503;BME280;40411;50.090;21.954;2022-12-07T10:13:52;149886.22;;;3.28;100.00
54503;BME280;40411;50.090;21.954;2022-12-07T10:16:35;149874.78;;;3.23;100.00
54503;BME280;40411;50.090;21.954;2022-12-07T10:19:30;149926.97;;;3.44;100.00
54503;BME280;40411;50.090;21.954;2022-12-07T10:22:15;149906.59;;;3.36;100.00
54503;BME280;40411;50.090;21.954;2022-12-07T10:24:43;149919.31;;;3.41;100.00
54503;BME280;40411;50.090;21.954;2022-12-07T10:27:21;149935.84;;;3.48;100.00
54503;BME280;40411;50.090;21.954;2022-12-07T10:29:50;149926.97;;;3.44;100.00
54503;BME280;40411;50.090;21.954;2022-12-07T10:34:43;149886.22;;;3.28;100.00
54503;BME280;40411;50.090;21.954;2022-12-07T10:42:33;149870.94;;;3.22;100.00
54503;BME280;40411;50.090;21.954;2022-12-07T10:45:16;149848.06;;;3.12;100.00
54503;BME280;40411;50.090;21.954;2022-12-07T10:47:47;149865.84;;;3.20;100.00
54503;BME280;40411;50.090;21.954;2022-12-07T11:01:37;149831.47;;;3.06;100.00
54503;BME280;40411;50.090;21.954;2022-12-07T11:07:21;149821.31;;;3.02;100.00
54503;BME280;40411;50.090;21.954;2022-12-07T11:12:56;149893.84;;;3.31;100.00
54503;BME280;40411;50.090;21.954;2022-12-07T11:15:53;149886.22;;;3.28;100.00
54503;BME280;40411;50.090;21.954;2022-12-07T11:18:33;149870.94;;;3.22;100.00
54503;BME280;40411;50.090;21.954;2022-12-07T11:21:20;149879.84;;;3.25;100.00
54503;BME280;40411;50.090;21.954;2022-12-07T11:23:52;149900.22;;;3.33;100.00
54503;BME280;40411;50.090;21.954;2022-12-07T11:29:05;149867.13;;;3.20;100.00
54503;BME280;40411;50.090;21.954;2022-12-07T11:37:02;149952.44;;;3.54;100.00
54503;BME280;40411;50.090;21.954;2022-12-07T11:39:35;149881.13;;;3.26;100.00
54503;BME280;40411;50.090;21.954;2022-12-07T11:42:21;149888.78;;;3.29;100.00
54503;BME280;40411;50.090;21.954;2022-12-07T11:45:10;149918.06;;;3.41;100.00
54503;BME280;40411;50.090;21.954;2022-12-07T11:47:45;149893.84;;;3.31;100.00
54503;BME280;40411;50.090;21.954;2022-12-07T11:50:36;149877.31;;;3.24;100.00
54503;BME280;40411;50.090;21.954;2022-12-07T12:03:55;149896.44;;;3.32;100.00
54503;BME280;40411;50.090;21.954;2022-12-07T12:06:22;149839.13;;;3.09;100.00
54503;BME280;40411;50.090;21.954;2022-12-07T12:11:36;149868.44;;;3.21;100.00
54503;BME280;40411;50.090;21.954;2022-12-07T12:14:29;149886.22;;;3.28;100.00
54503;BME280;40411;50.090;21.954;2022-12-07T12:20:00;149896.44;;;3.32;100.00
54503;BME280;40411;50.090;21.954;2022-12-07T12:22:39;149909.13;;;3.37;100.00
54503;BME280;40411;50.090;21.954;2022-12-07T12:27:48;149876.06;;;3.24;100.00
54503;BME280;40411;50.090;21.954;2022-12-07T12:30:39;149878.59;;;3.25;100.00
54503;BME280;40411;50.090;21.954;2022-12-07T12:33:28;149859.47;;;3.17;100.00
54503;BME280;40411;50.090;21.954;2022-12-07T12:55:02;149886.22;;;3.28;100.00
54503;BME280;40411;50.090;21.954;2022-12-07T12:57:37;149853.13;;;3.14;100.00
54503;BME280;40411;50.090;21.954;2022-12-07T13:00:23;149840.41;;;3.09;100.00
54503;BME280;40411;50.090;21.954;2022-12-07T13:02:55;149848.06;;;3.12;100.00
54503;BME280;40411;50.090;21.954;2022-12-07T13:05:27;149835.31;;;3.07;100.00
54503;BME280;40411;50.090;21.954;2022-12-07T13:08:19;149863.31;;;3.19;100.00
54503;BME280;40411;50.090;21.954;2022-12-07T13:10:46;149840.41;;;3.09;100.00
54503;BME280;40411;50.090;21.954;2022-12-07T13:15:51;149808.59;;;2.97;100.00
54503;BME280;40411;50.090;21.954;2022-12-07T13:28:38;149842.94;;;3.10;100.00
54503;BME280;40411;50.090;21.954;2022-12-07T13:31:29;149840.41;;;3.09;100.00
54503;BME280;40411;50.090;21.954;2022-12-07T13:33:57;149822.59;;;3.02;100.00
54503;BME280;40411;50.090;21.954;2022-12-07T13:36:33;149802.22;;;2.94;100.00
54503;BME280;40411;50.090;21.954;2022-12-07T13:39:34;149827.69;;;3.04;100.00
54503;BME280;40411;50.090;21.954;2022-12-07T13:42:11;149839.13;;;3.09;100.00
54503;BME280;40411;50.090;21.954;2022-12-07T13:44:41;149850.59;;;3.13;100.00
54503;BME280;40411;50.090;21.954;2022-12-07T13:47:43;149874.78;;;3.23;100.00
54503;BME280;40411;50.090;21.954;2022-12-07T13:50:30;149870.94;;;3.22;100.00
54503;BME280;40411;50.090;21.954;2022-12-07T13:52:58;149864.59;;;3.19;100.00
54503;BME280;40411;50.090;21.954;2022-12-07T13:55:25;149859.47;;;3.17;100.00
54503;BME280;40411;50.090;21.954;2022-12-07T13:57:53;149835.31;;;3.07;100.00
54503;BME280;40411;50.090;21.954;2022-12-07T14:00:24;149868.44;;;3.21;100.00
54503;BME280;40411;50.090;21.954;2022-12-07T14:03:25;149862.06;;;3.18;100.00
54503;BME280;40411;50.090;21.954;2022-12-07T14:06:13;149831.47;;;3.06;100.00
54503;BME280;40411;50.090;21.954;2022-12-07T14:08:40;149818.75;;;3.01;100.00
54503;BME280;40411;50.090;21.954;2022-12-07T14:11:11;149839.13;;;3.09;100.00
54503;BME280;40411;50.090;21.954;2022-12-07T14:13:55;149864.59;;;3.19;100.00
54503;BME280;40411;50.090;21.954;2022-12-07T14:16:30;149870.94;;;3.22;100.00
54503;BME280;40411;50.090;21.954;2022-12-07T14:18:58;149887.47;;;3.28;100.00
54503;BME280;40411;50.090;21.954;2022-12-07T14:21:27;149887.47;;;3.28;100.00
54503;BME280;40411;50.090;21.954;2022-12-07T14:24:16;149896.44;;;3.32;100.00
54503;BME280;40411;50.090;21.954;2022-12-07T14:26:45;149901.47;;;3.34;100.00
54503;BME280;40411;50.090;21.954;2022-12-07T14:29:31;149895.13;;;3.31;100.00
54503;BME280;40411;50.090;21.954;2022-12-07T14:32:17;149878.59;;;3.25;100.00
54503;BME280;40411;50.090;21.954;2022-12-07T14:37:33;149807.31;;;2.96;100.00
54503;BME280;40411;50.090;21.954;2022-12-07T14:39:59;149873.47;;;3.23;100.00